createdAt,value
2022-08-04T00:00:07.466Z,19.53
2022-08-04T00:02:49.048Z,19.57
2022-08-04T00:05:29.570Z,19.55
2022-08-04T00:08:14.863Z,19.36
2022-08-04T00:10:48.144Z,19.42
2022-08-04T00:13:16.754Z,19.39
2022-08-04T00:15:44.319Z,19.35
2022-08-04T00:18:15.244Z,19.16
2022-08-04T00:20:43.100Z,19.13
2022-08-04T00:23:10.884Z,19.25
2022-08-04T00:25:41.551Z,19.12
2022-08-04T00:28:08.971Z,19.12
2022-08-04T00:30:36.310Z,19.07
2022-08-04T00:33:03.816Z,19.02
2022-08-04T00:35:30.731Z,18.92
2022-08-04T00:37:57.689Z,18.88
2022-08-04T00:40:41.315Z,18.85
2022-08-04T00:43:40.166Z,18.86
2022-08-04T00:46:38.892Z,18.87
2022-08-04T00:49:08.477Z,18.89
2022-08-04T00:51:48.253Z,18.82
2022-08-04T00:54:52.592Z,18.82
2022-08-04T00:57:49.750Z,18.76
2022-08-04T01:00:17.764Z,18.76
2022-08-04T01:03:14.413Z,18.78
2022-08-04T01:05:49.636Z,18.81
2022-08-04T01:08:25.397Z,18.85
2022-08-04T01:11:03.060Z,18.92
2022-08-04T01:14:01.702Z,19.29
2022-08-04T01:16:35.335Z,19.82
2022-08-04T01:19:37.716Z,20.24
2022-08-04T01:22:32.129Z,20.33
2022-08-04T01:25:23.363Z,20.52
2022-08-04T01:28:10.862Z,20.73
2022-08-04T01:30:43.422Z,20.84
2022-08-04T01:33:12.889Z,20.97
2022-08-04T01:35:57.323Z,20.91
2022-08-04T01:38:37.234Z,20.84
2022-08-04T01:41:04.812Z,20.83
2022-08-04T01:43:34.117Z,20.71
2022-08-04T01:46:04.983Z,20.76
2022-08-04T01:48:32.852Z,20.71
2022-08-04T01:51:05.929Z,20.77
2022-08-04T01:53:38.000Z,20.85
2022-08-04T01:56:06.743Z,20.83
2022-08-04T01:58:35.060Z,20.75
2022-08-04T02:01:08.266Z,20.86
2022-08-04T02:04:21.833Z,20.86
2022-08-04T02:06:39.945Z,20.90
2022-08-04T02:09:31.611Z,20.90
2022-08-04T02:12:16.317Z,20.85
2022-08-04T02:14:57.273Z,20.84
2022-08-04T02:17:36.897Z,20.85
2022-08-04T02:20:07.910Z,21.05
2022-08-04T02:22:41.731Z,20.97
2022-08-04T02:25:11.615Z,21.00
2022-08-04T02:28:00.317Z,21.07
2022-08-04T02:31:10.755Z,21.08
2022-08-04T02:33:40.774Z,21.01
2022-08-04T02:36:13.894Z,20.87
2022-08-04T02:38:54.141Z,20.77
2022-08-04T02:41:24.892Z,20.83
2022-08-04T02:43:55.310Z,20.30
2022-08-04T02:46:22.676Z,20.38
2022-08-04T02:48:51.629Z,20.24
2022-08-04T02:51:25.174Z,19.90
2022-08-04T02:53:54.398Z,19.78
2022-08-04T02:56:23.117Z,19.39
2022-08-04T02:58:53.935Z,19.41
2022-08-04T03:01:23.433Z,19.36
2022-08-04T03:04:24.793Z,19.23
2022-08-04T03:07:25.826Z,19.29
2022-08-04T03:10:10.107Z,19.03
2022-08-04T03:12:36.626Z,18.92
2022-08-04T03:15:35.635Z,18.91
2022-08-04T03:18:02.206Z,18.83
2022-08-04T03:20:47.375Z,18.77
2022-08-04T03:23:29.258Z,18.65
2022-08-04T03:26:20.828Z,18.46
2022-08-04T03:29:06.619Z,18.47
2022-08-04T03:32:11.291Z,18.34
2022-08-04T03:34:37.830Z,18.33
2022-08-04T03:37:32.427Z,18.26
2022-08-04T03:40:23.775Z,18.30
2022-08-04T03:43:58.366Z,18.36
2022-08-04T03:46:18.252Z,18.43
2022-08-04T03:49:03.542Z,18.53
2022-08-04T03:51:57.661Z,18.60
2022-08-04T03:54:44.268Z,18.66
2022-08-04T03:57:44.588Z,18.87
2022-08-04T04:00:16.540Z,19.00
2022-08-04T04:03:11.765Z,19.12
2022-08-04T04:06:10.231Z,19.23
2022-08-04T04:09:16.246Z,19.44
2022-08-04T04:12:05.582Z,19.64
2022-08-04T04:14:54.393Z,19.96
2022-08-04T04:18:00.518Z,20.17
2022-08-04T04:20:51.297Z,20.69
2022-08-04T04:23:42.242Z,21.28
2022-08-04T04:26:27.517Z,22.11
2022-08-04T04:29:18.482Z,22.43
2022-08-04T04:32:06.798Z,23.42
2022-08-04T04:34:53.943Z,24.02
2022-08-04T04:37:37.853Z,24.71
2022-08-04T04:40:46.330Z,24.54
2022-08-04T04:44:13.935Z,25.56
2022-08-04T04:46:57.016Z,26.34
2022-08-04T04:49:34.841Z,26.67
2022-08-04T04:52:24.251Z,27.03
2022-08-04T04:55:19.297Z,26.33
2022-08-04T04:57:53.629Z,26.31
2022-08-04T05:00:24.060Z,26.51
2022-08-04T05:03:14.013Z,28.16
2022-08-04T05:05:52.355Z,29.55
2022-08-04T05:08:51.206Z,29.40
2022-08-04T05:11:29.490Z,29.45
2022-08-04T05:14:35.580Z,30.94
2022-08-04T05:17:04.788Z,31.94
2022-08-04T05:19:39.456Z,32.94
2022-08-04T05:22:18.287Z,32.26
2022-08-04T05:24:47.816Z,31.80
2022-08-04T05:27:26.462Z,33.34
2022-08-04T05:29:57.567Z,34.18
2022-08-04T05:32:28.228Z,35.20
2022-08-04T05:35:05.427Z,33.95
2022-08-04T05:37:36.008Z,33.04
2022-08-04T05:40:08.698Z,33.25
2022-08-04T05:42:38.170Z,33.66
2022-08-04T05:45:06.852Z,31.11
2022-08-04T05:47:34.204Z,32.50
2022-08-04T05:50:03.189Z,31.29
2022-08-04T05:52:31.574Z,31.26
2022-08-04T05:55:00.638Z,31.84
2022-08-04T05:57:28.614Z,31.59
2022-08-04T05:59:57.571Z,33.33
2022-08-04T06:02:25.435Z,32.25
2022-08-04T06:04:53.269Z,31.79
2022-08-04T06:07:20.471Z,32.35
2022-08-04T06:09:47.562Z,31.37
2022-08-04T06:12:27.357Z,31.86
2022-08-04T06:14:59.521Z,32.46
2022-08-04T06:18:34.031Z,33.89
2022-08-04T06:20:22.963Z,33.75
2022-08-04T06:22:54.006Z,34.55
2022-08-04T06:25:25.023Z,34.67
2022-08-04T06:27:52.599Z,35.27
2022-08-04T06:30:20.678Z,34.80
2022-08-04T06:32:49.880Z,34.24
2022-08-04T06:35:18.798Z,34.65
2022-08-04T06:37:49.291Z,34.89
2022-08-04T06:40:32.060Z,34.22
2022-08-04T06:43:09.336Z,33.51
2022-08-04T06:45:39.969Z,36.49
2022-08-04T06:48:08.189Z,33.76
2022-08-04T06:51:31.257Z,37.10
2022-08-04T06:53:26.590Z,36.57
2022-08-04T06:55:54.300Z,36.09
2022-08-04T06:58:22.566Z,37.22
2022-08-04T07:00:50.851Z,37.91
2022-08-04T07:03:19.370Z,36.79
2022-08-04T07:05:51.339Z,36.66
2022-08-04T07:08:19.134Z,36.59
2022-08-04T07:10:46.646Z,39.44
2022-08-04T07:13:13.943Z,38.11
2022-08-04T07:15:45.909Z,36.84
2022-08-04T07:18:12.832Z,38.18
2022-08-04T07:20:44.120Z,38.03
2022-08-04T07:23:13.823Z,38.09
2022-08-04T07:26:00.615Z,37.56
2022-08-04T07:28:30.009Z,36.91
2022-08-04T07:30:57.920Z,35.49
2022-08-04T07:33:26.112Z,37.17
2022-08-04T07:36:09.480Z,37.16
2022-08-04T07:38:51.049Z,36.00
2022-08-04T07:41:41.053Z,34.99
2022-08-04T07:44:09.971Z,36.58
2022-08-04T07:46:37.675Z,37.77
2022-08-04T07:49:05.264Z,37.84
2022-08-04T07:51:35.240Z,36.03
2022-08-04T07:54:05.059Z,36.09
2022-08-04T07:56:33.121Z,36.91
2022-08-04T07:59:01.137Z,35.61
2022-08-04T08:01:28.286Z,34.03
2022-08-04T08:03:57.264Z,35.40
2022-08-04T08:06:33.230Z,35.22
2022-08-04T08:09:13.628Z,36.32
2022-08-04T08:12:35.711Z,36.88
2022-08-04T08:14:37.130Z,35.72
2022-08-04T08:17:04.955Z,36.17
2022-08-04T08:19:32.787Z,34.90
2022-08-04T08:22:00.947Z,35.10
2022-08-04T08:24:34.988Z,34.72
2022-08-04T08:27:06.885Z,35.44
2022-08-04T08:29:35.278Z,37.10
2022-08-04T08:32:08.222Z,35.35
2022-08-04T08:34:37.798Z,35.31
2022-08-04T08:37:15.742Z,36.61
2022-08-04T08:39:54.324Z,35.15
2022-08-04T08:42:26.615Z,35.72
2022-08-04T08:45:17.902Z,35.16
2022-08-04T08:48:06.408Z,36.38
2022-08-04T08:50:39.625Z,35.13
2022-08-04T08:53:18.456Z,36.08
2022-08-04T08:56:06.446Z,36.79
2022-08-04T08:58:45.650Z,35.29
2022-08-04T09:01:26.247Z,35.83
2022-08-04T09:04:32.313Z,35.63
2022-08-04T09:07:08.448Z,35.49
2022-08-04T09:09:47.503Z,35.50
2022-08-04T09:12:36.177Z,35.75
2022-08-04T09:15:12.193Z,35.66
2022-08-04T09:17:48.824Z,36.36
2022-08-04T09:20:24.355Z,36.48
2022-08-04T09:22:51.057Z,36.09
2022-08-04T09:25:30.497Z,35.73
2022-08-04T09:28:09.734Z,35.77
2022-08-04T09:30:48.341Z,35.88
2022-08-04T09:33:44.478Z,36.08
2022-08-04T09:36:46.753Z,35.18
2022-08-04T09:39:16.305Z,35.70
2022-08-04T09:41:58.444Z,36.56
2022-08-04T09:44:53.169Z,36.03
2022-08-04T09:47:53.171Z,36.34
2022-08-04T09:50:29.924Z,36.85
2022-08-04T09:53:13.729Z,36.57
2022-08-04T09:56:10.284Z,36.33
2022-08-04T09:59:18.427Z,35.51
2022-08-04T10:01:49.617Z,35.16
2022-08-04T10:04:29.458Z,35.24
2022-08-04T10:07:17.937Z,35.41
2022-08-04T10:09:50.828Z,34.88
2022-08-04T10:13:05.771Z,35.70
2022-08-04T10:15:51.965Z,36.08
2022-08-04T10:18:39.863Z,36.33
2022-08-04T10:21:24.627Z,35.95
2022-08-04T10:24:07.597Z,36.00
2022-08-04T10:26:57.379Z,36.11
2022-08-04T10:29:45.735Z,35.96
2022-08-04T10:32:21.229Z,36.25
2022-08-04T10:35:11.723Z,36.97
2022-08-04T10:38:01.717Z,35.92
2022-08-04T10:40:36.427Z,36.36
2022-08-04T10:43:33.548Z,35.70
2022-08-04T10:46:10.785Z,36.32
2022-08-04T10:48:45.582Z,34.81
2022-08-04T10:51:24.148Z,34.62
2022-08-04T10:54:03.248Z,33.84
2022-08-04T10:56:39.208Z,35.09
2022-08-04T10:59:24.643Z,36.50
2022-08-04T11:02:01.786Z,36.10
2022-08-04T11:04:47.495Z,36.43
2022-08-04T11:07:16.797Z,36.36
2022-08-04T11:09:46.593Z,35.53
2022-08-04T11:12:27.379Z,36.16
2022-08-04T11:15:04.856Z,36.58
2022-08-04T11:17:50.346Z,35.74
2022-08-04T11:20:37.679Z,35.10
2022-08-04T11:23:14.173Z,35.34
2022-08-04T11:26:05.645Z,34.72
2022-08-04T11:28:44.543Z,34.17
2022-08-04T11:31:18.053Z,35.11
2022-08-04T11:33:52.498Z,34.26
2022-08-04T11:36:25.061Z,33.57
2022-08-04T11:39:11.461Z,32.97
2022-08-04T11:41:47.191Z,32.31
2022-08-04T11:44:21.219Z,32.17
2022-08-04T11:46:52.252Z,32.83
2022-08-04T11:49:57.519Z,33.81
2022-08-04T11:52:27.129Z,34.69
2022-08-04T11:54:55.739Z,34.92
2022-08-04T11:57:35.223Z,34.29
2022-08-04T12:00:07.444Z,34.70
2022-08-04T12:02:59.689Z,35.70
2022-08-04T12:05:42.064Z,35.55
2022-08-04T12:08:17.665Z,35.58
2022-08-04T12:11:26.319Z,36.04
2022-08-04T12:14:19.830Z,35.66
2022-08-04T12:17:00.105Z,35.60
2022-08-04T12:19:51.290Z,36.01
2022-08-04T12:22:31.325Z,36.42
2022-08-04T12:25:04.123Z,36.42
2022-08-04T12:27:40.071Z,36.93
2022-08-04T12:30:59.111Z,37.39
2022-08-04T12:34:02.946Z,36.49
2022-08-04T12:36:39.273Z,37.28
2022-08-04T12:39:27.296Z,37.82
2022-08-04T12:42:21.468Z,37.33
2022-08-04T12:44:54.214Z,36.81
2022-08-04T12:47:29.174Z,36.99
2022-08-04T12:50:02.671Z,38.16
2022-08-04T12:53:06.923Z,37.82
2022-08-04T12:55:37.202Z,38.47
2022-08-04T12:58:13.358Z,38.10
2022-08-04T13:00:45.273Z,38.41
2022-08-04T13:03:15.701Z,37.57
2022-08-04T13:05:45.032Z,36.88
2022-08-04T13:08:13.078Z,37.01
2022-08-04T13:10:42.503Z,36.98
2022-08-04T13:13:18.461Z,36.86
2022-08-04T13:16:00.210Z,36.05
2022-08-04T13:18:32.156Z,36.52
2022-08-04T13:21:19.444Z,36.53
2022-08-04T13:24:19.111Z,36.31
2022-08-04T13:26:54.525Z,35.17
2022-08-04T13:29:58.652Z,34.64
2022-08-04T13:32:23.269Z,34.51
2022-08-04T13:34:53.445Z,35.67
2022-08-04T13:37:25.518Z,35.91
2022-08-04T13:39:55.202Z,36.54
2022-08-04T13:42:24.230Z,36.79
2022-08-04T13:44:58.040Z,36.93
2022-08-04T13:47:31.544Z,36.42
2022-08-04T13:50:12.514Z,35.29
2022-08-04T13:52:41.159Z,35.36
2022-08-04T13:55:12.466Z,35.40
2022-08-04T13:57:45.107Z,35.54
2022-08-04T14:00:12.694Z,35.86
2022-08-04T14:02:49.943Z,36.06
2022-08-04T14:05:28.006Z,36.36
2022-08-04T14:08:17.200Z,36.69
2022-08-04T14:10:55.067Z,35.24
2022-08-04T14:13:41.248Z,35.76
2022-08-04T14:16:21.030Z,36.04
2022-08-04T14:18:57.326Z,35.71
2022-08-04T14:21:24.680Z,36.18
2022-08-04T14:23:54.286Z,36.45
2022-08-04T14:26:32.163Z,36.25
2022-08-04T14:29:26.846Z,35.52
2022-08-04T14:32:03.214Z,35.47
2022-08-04T14:34:31.153Z,35.85
2022-08-04T14:37:18.549Z,36.17
2022-08-04T14:40:18.028Z,36.16
2022-08-04T14:42:54.949Z,36.30
2022-08-04T14:45:54.132Z,36.77
2022-08-04T14:48:21.959Z,35.12
2022-08-04T14:50:50.610Z,35.93
2022-08-04T14:53:21.462Z,35.56
2022-08-04T14:55:50.895Z,35.87
2022-08-04T14:58:35.476Z,35.69
2022-08-04T15:01:12.943Z,34.95
2022-08-04T15:03:50.574Z,35.01
2022-08-04T15:06:22.555Z,34.12
2022-08-04T15:08:54.488Z,35.18
2022-08-04T15:11:22.772Z,35.30
2022-08-04T15:13:54.448Z,35.58
2022-08-04T15:16:23.320Z,35.36
2022-08-04T15:18:50.293Z,35.36
2022-08-04T15:21:17.716Z,34.95
2022-08-04T15:23:44.534Z,35.39
2022-08-04T15:26:15.568Z,34.24
2022-08-04T15:28:52.649Z,34.27
2022-08-04T15:32:03.909Z,34.64
2022-08-04T15:34:09.670Z,34.48
2022-08-04T15:36:44.792Z,34.96
2022-08-04T15:39:48.915Z,34.44
2022-08-04T15:42:26.636Z,33.91
2022-08-04T15:45:23.751Z,34.52
2022-08-04T15:48:13.309Z,34.22
2022-08-04T15:50:58.154Z,34.42
2022-08-04T15:53:28.646Z,34.26
2022-08-04T15:56:24.444Z,33.95
2022-08-04T15:58:55.205Z,34.11
2022-08-04T16:01:22.481Z,34.26
2022-08-04T16:03:54.312Z,34.27
2022-08-04T16:06:29.516Z,33.97
2022-08-04T16:09:01.924Z,33.86
2022-08-04T16:11:37.263Z,33.49
2022-08-04T16:14:10.155Z,33.53
2022-08-04T16:16:36.727Z,33.55
2022-08-04T16:19:14.517Z,33.61
2022-08-04T16:21:57.026Z,33.26
2022-08-04T16:24:43.897Z,33.12
2022-08-04T16:27:11.962Z,32.79
2022-08-04T16:29:39.675Z,32.83
2022-08-04T16:32:06.968Z,32.39
2022-08-04T16:34:54.601Z,32.30
2022-08-04T16:37:43.073Z,32.48
2022-08-04T16:40:38.810Z,32.26
2022-08-04T16:43:10.333Z,32.01
2022-08-04T16:45:44.224Z,32.05
2022-08-04T16:48:12.363Z,31.98
2022-08-04T16:50:51.197Z,31.96
2022-08-04T16:53:52.916Z,31.95
2022-08-04T16:56:08.941Z,31.84
2022-08-04T16:58:36.783Z,31.88
2022-08-04T17:01:21.768Z,31.80
2022-08-04T17:04:05.106Z,31.71
2022-08-04T17:06:40.041Z,31.70
2022-08-04T17:09:11.016Z,31.48
2022-08-04T17:11:37.810Z,31.38
2022-08-04T17:14:06.056Z,31.25
2022-08-04T17:16:36.101Z,30.99
2022-08-04T17:19:02.799Z,30.89
2022-08-04T17:21:32.322Z,30.69
2022-08-04T17:24:13.363Z,30.46
2022-08-04T17:26:51.789Z,30.30
2022-08-04T17:29:22.733Z,30.21
2022-08-04T17:32:13.947Z,29.85
2022-08-04T17:34:40.868Z,29.65
2022-08-04T17:37:52.121Z,29.36
2022-08-04T17:40:13.173Z,29.31
2022-08-04T17:42:41.442Z,28.99
2022-08-04T17:45:50.295Z,28.77
2022-08-04T17:47:57.039Z,28.66
2022-08-04T17:50:35.753Z,28.43
2022-08-04T17:53:11.619Z,28.26
2022-08-04T17:55:49.477Z,28.10
2022-08-04T17:58:23.120Z,27.75
2022-08-04T18:03:53.417Z,27.56
2022-08-04T18:06:25.415Z,27.35
2022-08-04T18:08:58.821Z,27.21
2022-08-04T18:11:52.613Z,27.11
2022-08-04T18:14:28.586Z,26.85
2022-08-04T18:16:55.946Z,26.76
2022-08-04T18:19:22.680Z,26.55
2022-08-04T18:21:59.437Z,26.41
2022-08-04T18:24:34.288Z,26.23
2022-08-04T18:27:06.454Z,26.12
2022-08-04T18:29:39.095Z,25.94
2022-08-04T18:32:06.669Z,25.76
2022-08-04T18:34:35.742Z,25.67
2022-08-04T18:38:03.582Z,25.50
2022-08-04T18:40:19.557Z,25.41
2022-08-04T18:42:41.791Z,25.28
2022-08-04T18:45:10.966Z,25.06
2022-08-04T18:47:54.521Z,24.98
2022-08-04T18:50:59.024Z,24.87
2022-08-04T18:53:11.362Z,24.77
2022-08-04T18:55:57.337Z,24.66
2022-08-04T18:58:27.582Z,24.55
2022-08-04T19:00:56.074Z,24.48
2022-08-04T19:03:27.028Z,24.31
2022-08-04T19:05:59.966Z,24.24
2022-08-04T19:08:34.438Z,24.27
2022-08-04T19:11:37.184Z,24.07
2022-08-04T19:13:54.548Z,23.99
2022-08-04T19:16:28.671Z,23.91
2022-08-04T19:18:56.836Z,23.72
2022-08-04T19:22:01.036Z,23.77
2022-08-04T19:24:31.146Z,23.70
2022-08-04T19:26:59.256Z,23.62
2022-08-04T19:29:25.869Z,23.53
2022-08-04T19:32:14.687Z,23.45
2022-08-04T19:34:47.109Z,23.45
2022-08-04T19:37:56.804Z,23.36
2022-08-04T19:40:09.568Z,23.34
2022-08-04T19:42:38.039Z,23.26
2022-08-04T19:45:06.206Z,23.16
2022-08-04T19:48:16.992Z,22.97
2022-08-04T19:50:19.981Z,22.89
2022-08-04T19:52:52.196Z,23.09
2022-08-04T19:55:22.274Z,23.59
2022-08-04T19:57:49.867Z,23.60
2022-08-04T20:00:33.241Z,23.59
2022-08-04T20:03:02.715Z,23.60
2022-08-04T20:05:53.154Z,23.51
2022-08-04T20:08:16.742Z,23.41
2022-08-04T20:10:46.957Z,23.26
2022-08-04T20:13:19.472Z,23.18
2022-08-04T20:15:57.662Z,23.06
2022-08-04T20:18:35.992Z,22.95
2022-08-04T20:21:19.654Z,22.89
2022-08-04T20:23:59.451Z,22.81
2022-08-04T20:26:46.075Z,22.75
2022-08-04T20:29:40.244Z,22.71
2022-08-04T20:32:05.641Z,22.66
2022-08-04T20:34:35.664Z,22.62
2022-08-04T20:37:03.115Z,22.52
2022-08-04T20:39:31.062Z,22.60
2022-08-04T20:41:58.342Z,22.63
2022-08-04T20:44:25.512Z,22.77
2022-08-04T20:46:52.141Z,22.81
2022-08-04T20:49:18.847Z,22.79
2022-08-04T20:51:46.219Z,22.74
2022-08-04T20:54:26.375Z,22.73
2022-08-04T20:56:53.429Z,22.66
2022-08-04T20:59:20.775Z,22.62
2022-08-04T21:01:53.562Z,22.56
2022-08-04T21:04:35.917Z,22.55
2022-08-04T21:07:06.383Z,22.48
2022-08-04T21:09:38.327Z,22.56
2022-08-04T21:12:27.502Z,22.55
2022-08-04T21:15:01.550Z,22.63
2022-08-04T21:17:59.559Z,22.61
2022-08-04T21:20:28.641Z,22.39
2022-08-04T21:22:59.636Z,22.52
2022-08-04T21:25:28.555Z,22.38
2022-08-04T21:27:55.631Z,22.36
2022-08-04T21:30:26.770Z,22.25
2022-08-04T21:32:55.099Z,22.40
2022-08-04T21:35:30.092Z,22.57
2022-08-04T21:38:17.114Z,22.61
2022-08-04T21:40:55.129Z,22.65
2022-08-04T21:43:27.226Z,22.57
2022-08-04T21:45:54.882Z,22.58
2022-08-04T21:48:21.538Z,22.71
2022-08-04T21:50:50.267Z,22.67
2022-08-04T21:53:19.870Z,22.62
2022-08-04T21:56:04.548Z,22.58
2022-08-04T21:58:34.981Z,22.67
2022-08-04T22:01:06.084Z,22.66
2022-08-04T22:03:53.026Z,22.70
2022-08-04T22:06:28.291Z,22.80
2022-08-04T22:08:56.658Z,22.85
2022-08-04T22:11:49.133Z,22.79
2022-08-04T22:14:27.579Z,22.78
2022-08-04T22:17:01.355Z,22.85
2022-08-04T22:19:40.822Z,22.91
2022-08-04T22:25:06.145Z,22.84
2022-08-04T22:28:01.010Z,22.78
2022-08-04T22:30:32.822Z,22.66
2022-08-04T22:33:00.595Z,22.49
2022-08-04T22:35:35.756Z,22.42
2022-08-04T22:38:24.478Z,22.34
2022-08-04T22:41:07.891Z,22.24
2022-08-04T22:43:36.322Z,22.08
2022-08-04T22:46:06.378Z,22.05
2022-08-04T22:48:35.681Z,22.02
2022-08-04T22:51:03.962Z,21.98
2022-08-04T22:53:31.634Z,21.95
2022-08-04T22:56:10.173Z,21.95
2022-08-04T22:58:40.214Z,21.94
2022-08-04T23:01:08.058Z,21.94
2022-08-04T23:03:37.191Z,21.96
2022-08-04T23:06:07.164Z,21.85
2022-08-04T23:08:38.142Z,21.91
2022-08-04T23:11:08.233Z,21.83
2022-08-04T23:13:36.776Z,21.80
2022-08-04T23:16:09.968Z,21.78
2022-08-04T23:18:41.933Z,21.77
2022-08-04T23:21:10.494Z,21.69
2022-08-04T23:23:55.414Z,21.51
2022-08-04T23:26:27.987Z,21.36
2022-08-04T23:28:56.446Z,21.42
2022-08-04T23:31:41.245Z,21.44
2022-08-04T23:34:13.794Z,21.39
2022-08-04T23:36:45.298Z,21.29
2022-08-04T23:39:14.345Z,21.32
2022-08-04T23:41:55.430Z,21.30
2022-08-04T23:44:26.766Z,21.18
2022-08-04T23:46:59.019Z,21.08
2022-08-04T23:49:44.159Z,20.99
2022-08-04T23:52:27.978Z,20.84
2022-08-04T23:55:00.457Z,20.74
2022-08-04T23:58:05.381Z,20.63
